sensor_id;sensor_type;location;lat;lon;timestamp;temperature;humidity
13960;DHT22;7052;51.050;3.716;2023-04-03T00:01:18;5.50;99.90
13960;DHT22;7052;51.050;3.716;2023-04-03T00:03:45;5.40;99.90
13960;DHT22;7052;51.050;3.716;2023-04-03T00:06:13;5.40;99.90
13960;DHT22;7052;51.050;3.716;2023-04-03T00:08:40;5.40;99.90
13960;DHT22;7052;51.050;3.716;2023-04-03T00:11:07;5.40;99.90
13960;DHT22;7052;51.050;3.716;2023-04-03T00:13:36;5.40;99.90
13960;DHT22;7052;51.050;3.716;2023-04-03T00:16:03;5.40;99.90
13960;DHT22;7052;51.050;3.716;2023-04-03T00:18:39;5.40;99.90
13960;DHT22;7052;51.050;3.716;2023-04-03T00:21:07;5.40;99.90
13960;DHT22;7052;51.050;3.716;2023-04-03T00:23:35;5.40;99.90
13960;DHT22;7052;51.050;3.716;2023-04-03T00:26:04;5.40;99.90
13960;DHT22;7052;51.050;3.716;2023-04-03T00:28:31;5.40;99.90
13960;DHT22;7052;51.050;3.716;2023-04-03T00:30:58;5.40;99.90
13960;DHT22;7052;51.050;3.716;2023-04-03T00:33:28;5.40;99.90
13960;DHT22;7052;51.050;3.716;2023-04-03T00:35:58;5.40;99.90
13960;DHT22;7052;51.050;3.716;2023-04-03T00:38:26;5.40;99.90
13960;DHT22;7052;51.050;3.716;2023-04-03T00:40:53;5.40;99.90
13960;DHT22;7052;51.050;3.716;2023-04-03T00:43:21;5.40;99.90
13960;DHT22;7052;51.050;3.716;2023-04-03T00:45:51;5.40;99.90
13960;DHT22;7052;51.050;3.716;2023-04-03T00:48:21;5.30;99.90
13960;DHT22;7052;51.050;3.716;2023-04-03T00:50:50;5.40;99.90
13960;DHT22;7052;51.050;3.716;2023-04-03T00:53:23;5.30;99.90
13960;DHT22;7052;51.050;3.716;2023-04-03T00:55:53;5.30;99.90
13960;DHT22;7052;51.050;3.716;2023-04-03T00:58:26;5.30;99.90
13960;DHT22;7052;51.050;3.716;2023-04-03T01:00:57;5.20;99.90
13960;DHT22;7052;51.050;3.716;2023-04-03T01:03:25;5.30;99.90
13960;DHT22;7052;51.050;3.716;2023-04-03T01:05:54;5.20;99.90
13960;DHT22;7052;51.050;3.716;2023-04-03T01:08:24;5.20;99.90
13960;DHT22;7052;51.050;3.716;2023-04-03T01:10:51;5.20;99.90
13960;DHT22;7052;51.050;3.716;2023-04-03T01:13:21;5.20;99.90
13960;DHT22;7052;51.050;3.716;2023-04-03T01:15:48;5.20;99.90
13960;DHT22;7052;51.050;3.716;2023-04-03T01:18:18;5.10;99.90
13960;DHT22;7052;51.050;3.716;2023-04-03T01:21:16;5.20;99.90
13960;DHT22;7052;51.050;3.716;2023-04-03T01:24:18;5.20;99.90
13960;DHT22;7052;51.050;3.716;2023-04-03T01:26:50;5.10;99.90
13960;DHT22;7052;51.050;3.716;2023-04-03T01:29:17;5.10;99.90
13960;DHT22;7052;51.050;3.716;2023-04-03T01:31:49;5.10;99.90
13960;DHT22;7052;51.050;3.716;2023-04-03T01:34:18;5.10;99.90
13960;DHT22;7052;51.050;3.716;2023-04-03T01:36:45;5.10;99.90
13960;DHT22;7052;51.050;3.716;2023-04-03T01:39:12;5.10;99.90
13960;DHT22;7052;51.050;3.716;2023-04-03T01:41:39;5.00;99.90
13960;DHT22;7052;51.050;3.716;2023-04-03T01:44:06;5.00;99.90
13960;DHT22;7052;51.050;3.716;2023-04-03T01:46:34;4.90;99.90
13960;DHT22;7052;51.050;3.716;2023-04-03T01:49:03;4.90;99.90
13960;DHT22;7052;51.050;3.716;2023-04-03T01:51:30;4.90;99.90
13960;DHT22;7052;51.050;3.716;2023-04-03T01:53:58;4.80;99.90
13960;DHT22;7052;51.050;3.716;2023-04-03T01:56:26;4.80;99.90
13960;DHT22;7052;51.050;3.716;2023-04-03T01:58:54;4.80;99.90
13960;DHT22;7052;51.050;3.716;2023-04-03T02:01:21;4.80;99.90
13960;DHT22;7052;51.050;3.716;2023-04-03T02:03:48;4.80;99.90
13960;DHT22;7052;51.050;3.716;2023-04-03T02:06:17;4.80;99.90
13960;DHT22;7052;51.050;3.716;2023-04-03T02:08:44;4.80;99.90
13960;DHT22;7052;51.050;3.716;2023-04-03T02:11:12;4.80;99.90
13960;DHT22;7052;51.050;3.716;2023-04-03T02:13:41;4.80;99.90
13960;DHT22;7052;51.050;3.716;2023-04-03T02:16:10;4.80;99.90
13960;DHT22;7052;51.050;3.716;2023-04-03T02:18:38;4.70;99.90
13960;DHT22;7052;51.050;3.716;2023-04-03T02:21:05;4.70;99.90
13960;DHT22;7052;51.050;3.716;2023-04-03T02:23:34;4.70;99.90
13960;DHT22;7052;51.050;3.716;2023-04-03T02:26:05;4.70;99.90
13960;DHT22;7052;51.050;3.716;2023-04-03T02:28:33;4.70;99.90
13960;DHT22;7052;51.050;3.716;2023-04-03T02:31:00;4.70;99.90
13960;DHT22;7052;51.050;3.716;2023-04-03T02:33:27;4.70;99.90
13960;DHT22;7052;51.050;3.716;2023-04-03T02:35:56;4.70;99.90
13960;DHT22;7052;51.050;3.716;2023-04-03T02:38:23;4.70;99.90
13960;DHT22;7052;51.050;3.716;2023-04-03T02:40:59;4.60;99.90
13960;DHT22;7052;51.050;3.716;2023-04-03T02:43:27;4.60;99.90
13960;DHT22;7052;51.050;3.716;2023-04-03T02:45:56;4.70;99.90
13960;DHT22;7052;51.050;3.716;2023-04-03T02:48:24;4.60;99.90
13960;DHT22;7052;51.050;3.716;2023-04-03T02:50:54;4.60;99.90
13960;DHT22;7052;51.050;3.716;2023-04-03T02:53:21;4.60;99.90
13960;DHT22;7052;51.050;3.716;2023-04-03T02:55:48;4.60;99.90
13960;DHT22;7052;51.050;3.716;2023-04-03T02:58:18;4.60;99.90
13960;DHT22;7052;51.050;3.716;2023-04-03T03:00:45;4.60;99.90
13960;DHT22;7052;51.050;3.716;2023-04-03T03:03:14;4.70;99.90
13960;DHT22;7052;51.050;3.716;2023-04-03T03:05:41;4.60;99.90
13960;DHT22;7052;51.050;3.716;2023-04-03T03:08:08;4.60;99.90
13960;DHT22;7052;51.050;3.716;2023-04-03T03:10:35;4.60;99.90
13960;DHT22;7052;51.050;3.716;2023-04-03T03:13:02;4.60;99.90
13960;DHT22;7052;51.050;3.716;2023-04-03T03:15:31;4.60;99.90
13960;DHT22;7052;51.050;3.716;2023-04-03T03:18:03;4.60;99.90
13960;DHT22;7052;51.050;3.716;2023-04-03T03:20:30;4.60;99.90
13960;DHT22;7052;51.050;3.716;2023-04-03T03:22:59;4.60;99.90
13960;DHT22;7052;51.050;3.716;2023-04-03T03:25:26;4.60;99.90
13960;DHT22;7052;51.050;3.716;2023-04-03T03:27:53;4.60;99.90
13960;DHT22;7052;51.050;3.716;2023-04-03T03:30:21;4.60;99.90
13960;DHT22;7052;51.050;3.716;2023-04-03T03:32:50;4.60;99.90
13960;DHT22;7052;51.050;3.716;2023-04-03T03:35:19;4.60;99.90
13960;DHT22;7052;51.050;3.716;2023-04-03T03:37:46;4.60;99.90
13960;DHT22;7052;51.050;3.716;2023-04-03T03:40:13;4.60;99.90
13960;DHT22;7052;51.050;3.716;2023-04-03T03:42:40;4.50;99.90
13960;DHT22;7052;51.050;3.716;2023-04-03T03:45:08;4.50;99.90
13960;DHT22;7052;51.050;3.716;2023-04-03T03:47:35;4.50;99.90
13960;DHT22;7052;51.050;3.716;2023-04-03T03:50:11;4.50;99.90
13960;DHT22;7052;51.050;3.716;2023-04-03T03:52:38;4.50;99.90
13960;DHT22;7052;51.050;3.716;2023-04-03T03:55:06;4.50;99.90
13960;DHT22;7052;51.050;3.716;2023-04-03T03:57:34;4.40;99.90
13960;DHT22;7052;51.050;3.716;2023-04-03T04:00:01;4.40;99.90
13960;DHT22;7052;51.050;3.716;2023-04-03T04:02:28;4.40;99.90
13960;DHT22;7052;51.050;3.716;2023-04-03T04:04:56;4.40;99.90
13960;DHT22;7052;51.050;3.716;2023-04-03T04:07:25;4.40;99.90
13960;DHT22;7052;51.050;3.716;2023-04-03T04:09:56;4.40;99.90
13960;DHT22;7052;51.050;3.716;2023-04-03T04:12:24;4.40;99.90
13960;DHT22;7052;51.050;3.716;2023-04-03T04:14:51;4.40;99.90
13960;DHT22;7052;51.050;3.716;2023-04-03T04:17:18;4.30;99.90
13960;DHT22;7052;51.050;3.716;2023-04-03T04:19:45;4.30;99.90
13960;DHT22;7052;51.050;3.716;2023-04-03T04:22:14;4.40;99.90
13960;DHT22;7052;51.050;3.716;2023-04-03T04:24:44;4.30;99.90
13960;DHT22;7052;51.050;3.716;2023-04-03T04:27:11;4.30;99.90
13960;DHT22;7052;51.050;3.716;2023-04-03T04:29:38;4.30;99.90
13960;DHT22;7052;51.050;3.716;2023-04-03T04:32:05;4.30;99.90
13960;DHT22;7052;51.050;3.716;2023-04-03T04:34:33;4.30;99.90
13960;DHT22;7052;51.050;3.716;2023-04-03T04:37:03;4.30;99.90
13960;DHT22;7052;51.050;3.716;2023-04-03T04:39:35;4.30;99.90
13960;DHT22;7052;51.050;3.716;2023-04-03T04:42:06;4.30;99.90
13960;DHT22;7052;51.050;3.716;2023-04-03T04:44:39;4.30;99.90
13960;DHT22;7052;51.050;3.716;2023-04-03T04:47:07;4.30;99.90
13960;DHT22;7052;51.050;3.716;2023-04-03T04:49:36;4.20;99.90
13960;DHT22;7052;51.050;3.716;2023-04-03T04:52:03;4.20;99.90
13960;DHT22;7052;51.050;3.716;2023-04-03T04:54:31;4.20;99.90
13960;DHT22;7052;51.050;3.716;2023-04-03T04:56:59;4.10;99.90
13960;DHT22;7052;51.050;3.716;2023-04-03T04:59:27;4.10;99.90
13960;DHT22;7052;51.050;3.716;2023-04-03T05:01:54;4.10;99.90
13960;DHT22;7052;51.050;3.716;2023-04-03T05:04:23;4.10;99.90
13960;DHT22;7052;51.050;3.716;2023-04-03T05:06:51;4.10;99.90
13960;DHT22;7052;51.050;3.716;2023-04-03T05:09:18;4.10;99.90
13960;DHT22;7052;51.050;3.716;2023-04-03T05:11:47;4.10;99.90
13960;DHT22;7052;51.050;3.716;2023-04-03T05:14:13;4.10;99.90
13960;DHT22;7052;51.050;3.716;2023-04-03T05:16:44;4.10;99.90
13960;DHT22;7052;51.050;3.716;2023-04-03T05:19:12;4.10;99.90
13960;DHT22;7052;51.050;3.716;2023-04-03T05:21:41;4.00;99.90
13960;DHT22;7052;51.050;3.716;2023-04-03T05:24:08;4.10;99.90
13960;DHT22;7052;51.050;3.716;2023-04-03T05:26:38;4.10;99.90
13960;DHT22;7052;51.050;3.716;2023-04-03T05:29:07;4.10;99.90
13960;DHT22;7052;51.050;3.716;2023-04-03T05:31:33;4.10;99.90
13960;DHT22;7052;51.050;3.716;2023-04-03T05:34:09;4.10;99.90
13960;DHT22;7052;51.050;3.716;2023-04-03T05:36:36;4.10;99.90
13960;DHT22;7052;51.050;3.716;2023-04-03T05:39:05;4.00;99.90
13960;DHT22;7052;51.050;3.716;2023-04-03T05:41:33;4.00;99.90
13960;DHT22;7052;51.050;3.716;2023-04-03T05:44:01;4.00;99.90
13960;DHT22;7052;51.050;3.716;2023-04-03T05:46:29;4.00;99.90
13960;DHT22;7052;51.050;3.716;2023-04-03T05:48:56;4.10;99.90
13960;DHT22;7052;51.050;3.716;2023-04-03T05:51:28;4.10;99.90
13960;DHT22;7052;51.050;3.716;2023-04-03T05:54:03;4.10;99.90
13960;DHT22;7052;51.050;3.716;2023-04-03T05:56:33;4.10;99.90
13960;DHT22;7052;51.050;3.716;2023-04-03T05:59:03;4.10;99.90
13960;DHT22;7052;51.050;3.716;2023-04-03T06:01:30;4.10;99.90
13960;DHT22;7052;51.050;3.716;2023-04-03T06:03:57;4.10;99.90
13960;DHT22;7052;51.050;3.716;2023-04-03T06:06:43;4.20;99.90
13960;DHT22;7052;51.050;3.716;2023-04-03T06:09:12;4.20;99.90
13960;DHT22;7052;51.050;3.716;2023-04-03T06:11:40;4.20;99.90
13960;DHT22;7052;51.050;3.716;2023-04-03T06:14:07;4.30;99.90
13960;DHT22;7052;51.050;3.716;2023-04-03T06:16:35;4.30;99.90
13960;DHT22;7052;51.050;3.716;2023-04-03T06:19:04;4.40;99.90
13960;DHT22;7052;51.050;3.716;2023-04-03T06:21:37;4.40;99.90
13960;DHT22;7052;51.050;3.716;2023-04-03T06:24:04;4.40;99.90
13960;DHT22;7052;51.050;3.716;2023-04-03T06:26:36;4.50;99.90
13960;DHT22;7052;51.050;3.716;2023-04-03T06:29:06;4.50;99.90
13960;DHT22;7052;51.050;3.716;2023-04-03T06:31:35;4.90;99.90
13960;DHT22;7052;51.050;3.716;2023-04-03T06:34:06;5.50;99.90
13960;DHT22;7052;51.050;3.716;2023-04-03T06:36:37;6.20;99.90
13960;DHT22;7052;51.050;3.716;2023-04-03T06:39:14;6.80;99.90
13960;DHT22;7052;51.050;3.716;2023-04-03T06:41:41;7.50;99.90
13960;DHT22;7052;51.050;3.716;2023-04-03T06:44:10;7.90;98.60
13960;DHT22;7052;51.050;3.716;2023-04-03T06:46:39;8.30;96.30
13960;DHT22;7052;51.050;3.716;2023-04-03T06:49:09;8.70;93.50
13960;DHT22;7052;51.050;3.716;2023-04-03T06:51:38;8.90;92.60
13960;DHT22;7052;51.050;3.716;2023-04-03T06:54:06;9.00;91.00
13960;DHT22;7052;51.050;3.716;2023-04-03T06:56:33;9.20;89.80
13960;DHT22;7052;51.050;3.716;2023-04-03T06:59:01;9.30;90.10
13960;DHT22;7052;51.050;3.716;2023-04-03T07:01:29;9.40;87.60
13960;DHT22;7052;51.050;3.716;2023-04-03T07:03:58;9.50;84.90
13960;DHT22;7052;51.050;3.716;2023-04-03T07:06:25;9.60;85.10
13960;DHT22;7052;51.050;3.716;2023-04-03T07:08:55;9.70;82.10
13960;DHT22;7052;51.050;3.716;2023-04-03T07:11:23;9.70;80.70
13960;DHT22;7052;51.050;3.716;2023-04-03T07:13:55;9.70;79.10
13960;DHT22;7052;51.050;3.716;2023-04-03T07:16:23;9.50;77.30
13960;DHT22;7052;51.050;3.716;2023-04-03T07:18:50;9.20;77.50
13960;DHT22;7052;51.050;3.716;2023-04-03T07:21:18;8.80;81.40
13960;DHT22;7052;51.050;3.716;2023-04-03T07:23:46;8.40;84.90
13960;DHT22;7052;51.050;3.716;2023-04-03T07:26:18;8.10;87.20
13960;DHT22;7052;51.050;3.716;2023-04-03T07:28:46;7.80;89.80
13960;DHT22;7052;51.050;3.716;2023-04-03T07:31:14;7.60;90.90
13960;DHT22;7052;51.050;3.716;2023-04-03T07:33:43;7.50;91.30
13960;DHT22;7052;51.050;3.716;2023-04-03T07:36:11;7.40;91.30
13960;DHT22;7052;51.050;3.716;2023-04-03T07:38:41;7.40;91.60
13960;DHT22;7052;51.050;3.716;2023-04-03T07:41:12;7.30;92.00
13960;DHT22;7052;51.050;3.716;2023-04-03T07:43:44;7.30;92.40
13960;DHT22;7052;51.050;3.716;2023-04-03T07:46:12;7.30;92.50
13960;DHT22;7052;51.050;3.716;2023-04-03T07:48:39;7.20;92.60
13960;DHT22;7052;51.050;3.716;2023-04-03T07:51:11;7.30;93.10
13960;DHT22;7052;51.050;3.716;2023-04-03T07:53:38;7.20;93.30
13960;DHT22;7052;51.050;3.716;2023-04-03T07:56:06;7.20;94.00
13960;DHT22;7052;51.050;3.716;2023-04-03T07:58:33;7.20;93.30
13960;DHT22;7052;51.050;3.716;2023-04-03T08:01:02;7.20;93.50
13960;DHT22;7052;51.050;3.716;2023-04-03T08:03:29;7.30;93.30
13960;DHT22;7052;51.050;3.716;2023-04-03T08:06:02;7.20;93.30
13960;DHT22;7052;51.050;3.716;2023-04-03T08:08:30;7.20;93.60
13960;DHT22;7052;51.050;3.716;2023-04-03T08:10:59;7.30;93.70
13960;DHT22;7052;51.050;3.716;2023-04-03T08:13:28;7.30;93.60
13960;DHT22;7052;51.050;3.716;2023-04-03T08:15:54;7.50;93.50
13960;DHT22;7052;51.050;3.716;2023-04-03T08:18:27;7.50;93.40
13960;DHT22;7052;51.050;3.716;2023-04-03T08:20:55;7.60;93.30
13960;DHT22;7052;51.050;3.716;2023-04-03T08:23:22;7.70;93.00
13960;DHT22;7052;51.050;3.716;2023-04-03T08:25:49;7.80;93.00
13960;DHT22;7052;51.050;3.716;2023-04-03T08:28:17;7.80;92.80
13960;DHT22;7052;51.050;3.716;2023-04-03T08:30:46;7.90;92.70
13960;DHT22;7052;51.050;3.716;2023-04-03T08:33:14;7.90;92.30
13960;DHT22;7052;51.050;3.716;2023-04-03T08:35:43;8.00;92.30
13960;DHT22;7052;51.050;3.716;2023-04-03T08:38:11;8.10;91.70
13960;DHT22;7052;51.050;3.716;2023-04-03T08:40:39;8.10;91.90
13960;DHT22;7052;51.050;3.716;2023-04-03T08:43:25;8.10;91.80
13960;DHT22;7052;51.050;3.716;2023-04-03T08:46:01;8.20;91.80
13960;DHT22;7052;51.050;3.716;2023-04-03T08:48:32;8.20;92.00
13960;DHT22;7052;51.050;3.716;2023-04-03T08:51:04;8.40;92.30
13960;DHT22;7052;51.050;3.716;2023-04-03T08:53:41;8.30;91.70
13960;DHT22;7052;51.050;3.716;2023-04-03T08:56:14;8.40;91.80
13960;DHT22;7052;51.050;3.716;2023-04-03T08:58:48;8.50;91.00
13960;DHT22;7052;51.050;3.716;2023-04-03T09:01:21;8.60;90.80
13960;DHT22;7052;51.050;3.716;2023-04-03T09:03:56;8.60;90.00
13960;DHT22;7052;51.050;3.716;2023-04-03T09:06:26;8.70;89.20
13960;DHT22;7052;51.050;3.716;2023-04-03T09:09:06;8.70;87.30
13960;DHT22;7052;51.050;3.716;2023-04-03T09:11:47;8.90;83.40
13960;DHT22;7052;51.050;3.716;2023-04-03T09:14:24;9.00;76.90
13960;DHT22;7052;51.050;3.716;2023-04-03T09:16:55;9.10;70.20
13960;DHT22;7052;51.050;3.716;2023-04-03T09:19:35;9.20;70.10
13960;DHT22;7052;51.050;3.716;2023-04-03T09:22:19;9.10;67.90
13960;DHT22;7052;51.050;3.716;2023-04-03T09:24:52;9.20;66.50
13960;DHT22;7052;51.050;3.716;2023-04-03T09:27:22;9.30;64.80
13960;DHT22;7052;51.050;3.716;2023-04-03T09:29:53;9.30;65.60
13960;DHT22;7052;51.050;3.716;2023-04-03T09:32:26;9.40;62.50
13960;DHT22;7052;51.050;3.716;2023-04-03T09:34:54;9.50;60.00
13960;DHT22;7052;51.050;3.716;2023-04-03T09:37:38;9.50;57.40
13960;DHT22;7052;51.050;3.716;2023-04-03T09:40:12;9.60;55.20
13960;DHT22;7052;51.050;3.716;2023-04-03T09:42:57;9.50;55.30
13960;DHT22;7052;51.050;3.716;2023-04-03T09:45:28;9.50;56.40
13960;DHT22;7052;51.050;3.716;2023-04-03T09:48:07;9.50;56.80
13960;DHT22;7052;51.050;3.716;2023-04-03T09:50:36;9.60;56.90
13960;DHT22;7052;51.050;3.716;2023-04-03T09:53:06;9.70;56.40
13960;DHT22;7052;51.050;3.716;2023-04-03T09:55:42;9.70;55.60
13960;DHT22;7052;51.050;3.716;2023-04-03T09:58:26;9.80;56.00
13960;DHT22;7052;51.050;3.716;2023-04-03T10:00:58;9.70;57.30
13960;DHT22;7052;51.050;3.716;2023-04-03T10:03:30;9.70;57.20
13960;DHT22;7052;51.050;3.716;2023-04-03T10:05:57;9.70;57.40
13960;DHT22;7052;51.050;3.716;2023-04-03T10:08:28;9.80;56.50
13960;DHT22;7052;51.050;3.716;2023-04-03T10:11:11;9.80;54.60
13960;DHT22;7052;51.050;3.716;2023-04-03T10:14:15;10.00;52.50
13960;DHT22;7052;51.050;3.716;2023-04-03T10:16:48;10.00;50.90
13960;DHT22;7052;51.050;3.716;2023-04-03T10:19:33;10.20;51.40
13960;DHT22;7052;51.050;3.716;2023-04-03T10:22:14;10.20;52.20
13960;DHT22;7052;51.050;3.716;2023-04-03T10:24:50;10.30;51.80
13960;DHT22;7052;51.050;3.716;2023-04-03T10:27:28;10.30;50.90
13960;DHT22;7052;51.050;3.716;2023-04-03T10:30:08;10.30;51.50
13960;DHT22;7052;51.050;3.716;2023-04-03T10:32:53;10.50;51.40
13960;DHT22;7052;51.050;3.716;2023-04-03T10:35:36;10.50;52.10
13960;DHT22;7052;51.050;3.716;2023-04-03T10:38:11;10.60;52.70
13960;DHT22;7052;51.050;3.716;2023-04-03T10:40:46;10.60;51.20
13960;DHT22;7052;51.050;3.716;2023-04-03T10:43:21;10.50;50.80
13960;DHT22;7052;51.050;3.716;2023-04-03T10:46:00;10.60;50.60
13960;DHT22;7052;51.050;3.716;2023-04-03T10:48:45;10.80;49.80
13960;DHT22;7052;51.050;3.716;2023-04-03T10:51:25;10.70;50.20
13960;DHT22;7052;51.050;3.716;2023-04-03T10:53:57;10.80;50.80
13960;DHT22;7052;51.050;3.716;2023-04-03T10:56:31;10.90;50.20
13960;DHT22;7052;51.050;3.716;2023-04-03T10:59:07;11.00;49.70
13960;DHT22;7052;51.050;3.716;2023-04-03T11:01:38;11.10;47.40
13960;DHT22;7052;51.050;3.716;2023-04-03T11:04:07;11.20;46.40
13960;DHT22;7052;51.050;3.716;2023-04-03T11:06:38;11.20;45.90
13960;DHT22;7052;51.050;3.716;2023-04-03T11:09:15;11.30;45.90
13960;DHT22;7052;51.050;3.716;2023-04-03T11:11:43;11.30;46.10
13960;DHT22;7052;51.050;3.716;2023-04-03T11:14:17;11.40;45.20
13960;DHT22;7052;51.050;3.716;2023-04-03T11:17:01;11.40;45.20
13960;DHT22;7052;51.050;3.716;2023-04-03T11:19:39;11.50;45.70
13960;DHT22;7052;51.050;3.716;2023-04-03T11:22:13;11.60;45.10
13960;DHT22;7052;51.050;3.716;2023-04-03T11:24:52;11.60;44.50
13960;DHT22;7052;51.050;3.716;2023-04-03T11:27:30;11.70;44.30
13960;DHT22;7052;51.050;3.716;2023-04-03T11:30:02;11.70;43.00
13960;DHT22;7052;51.050;3.716;2023-04-03T11:32:46;11.70;43.10
13960;DHT22;7052;51.050;3.716;2023-04-03T11:35:17;11.80;42.50
13960;DHT22;7052;51.050;3.716;2023-04-03T11:37:53;11.90;40.90
13960;DHT22;7052;51.050;3.716;2023-04-03T11:40:24;11.90;41.00
13960;DHT22;7052;51.050;3.716;2023-04-03T11:42:53;11.90;42.00
13960;DHT22;7052;51.050;3.716;2023-04-03T11:45:49;11.90;42.60
13960;DHT22;7052;51.050;3.716;2023-04-03T11:48:46;12.00;40.90
13960;DHT22;7052;51.050;3.716;2023-04-03T12:00:51;12.20;34.70
13960;DHT22;7052;51.050;3.716;2023-04-03T12:04:05;12.30;35.50
13960;DHT22;7052;51.050;3.716;2023-04-03T12:06:58;12.30;35.00
13960;DHT22;7052;51.050;3.716;2023-04-03T12:09:35;12.30;35.10
13960;DHT22;7052;51.050;3.716;2023-04-03T12:12:24;12.40;35.40
13960;DHT22;7052;51.050;3.716;2023-04-03T12:14:53;12.40;35.10
13960;DHT22;7052;51.050;3.716;2023-04-03T12:17:27;12.40;35.30
13960;DHT22;7052;51.050;3.716;2023-04-03T12:19:56;12.40;36.20
13960;DHT22;7052;51.050;3.716;2023-04-03T12:22:26;12.40;37.60
13960;DHT22;7052;51.050;3.716;2023-04-03T12:24:53;12.50;37.10
13960;DHT22;7052;51.050;3.716;2023-04-03T12:27:26;12.60;36.30
13960;DHT22;7052;51.050;3.716;2023-04-03T12:29:58;12.60;37.40
13960;DHT22;7052;51.050;3.716;2023-04-03T12:32:41;12.60;37.60
13960;DHT22;7052;51.050;3.716;2023-04-03T12:35:21;12.70;37.40
13960;DHT22;7052;51.050;3.716;2023-04-03T12:38:17;12.70;39.00
13960;DHT22;7052;51.050;3.716;2023-04-03T12:41:21;12.90;39.00
13960;DHT22;7052;51.050;3.716;2023-04-03T12:44:03;13.00;37.20
13960;DHT22;7052;51.050;3.716;2023-04-03T12:46:39;12.90;37.40
13960;DHT22;7052;51.050;3.716;2023-04-03T12:49:22;12.90;37.90
13960;DHT22;7052;51.050;3.716;2023-04-03T12:51:55;12.90;37.70
13960;DHT22;7052;51.050;3.716;2023-04-03T12:54:23;12.90;37.80
13960;DHT22;7052;51.050;3.716;2023-04-03T12:57:09;12.90;37.60
13960;DHT22;7052;51.050;3.716;2023-04-03T12:59:36;12.90;37.70
13960;DHT22;7052;51.050;3.716;2023-04-03T13:02:21;12.80;37.50
13960;DHT22;7052;51.050;3.716;2023-04-03T13:04:50;12.90;37.80
13960;DHT22;7052;51.050;3.716;2023-04-03T13:07:23;12.90;37.80
13960;DHT22;7052;51.050;3.716;2023-04-03T13:10:09;13.00;35.70
13960;DHT22;7052;51.050;3.716;2023-04-03T13:12:46;13.00;36.30
13960;DHT22;7052;51.050;3.716;2023-04-03T13:15:16;13.10;36.80
13960;DHT22;7052;51.050;3.716;2023-04-03T13:17:44;13.20;35.80
13960;DHT22;7052;51.050;3.716;2023-04-03T13:20:16;13.20;35.10
13960;DHT22;7052;51.050;3.716;2023-04-03T13:22:53;13.30;34.80
13960;DHT22;7052;51.050;3.716;2023-04-03T13:25:24;13.20;33.90
13960;DHT22;7052;51.050;3.716;2023-04-03T13:27:55;13.30;34.00
13960;DHT22;7052;51.050;3.716;2023-04-03T13:30:27;13.30;34.30
13960;DHT22;7052;51.050;3.716;2023-04-03T13:32:57;13.30;33.90
13960;DHT22;7052;51.050;3.716;2023-04-03T13:35:27;13.30;34.00
13960;DHT22;7052;51.050;3.716;2023-04-03T13:38:04;13.30;33.90
13960;DHT22;7052;51.050;3.716;2023-04-03T13:40:31;13.30;34.30
13960;DHT22;7052;51.050;3.716;2023-04-03T13:43:00;13.30;33.70
13960;DHT22;7052;51.050;3.716;2023-04-03T13:45:28;13.30;33.90
13960;DHT22;7052;51.050;3.716;2023-04-03T13:48:11;13.30;33.40
13960;DHT22;7052;51.050;3.716;2023-04-03T13:50:54;13.30;33.60
13960;DHT22;7052;51.050;3.716;2023-04-03T13:53:26;13.40;32.00
13960;DHT22;7052;51.050;3.716;2023-04-03T13:56:08;13.40;30.10
13960;DHT22;7052;51.050;3.716;2023-04-03T13:58:39;13.40;30.00
13960;DHT22;7052;51.050;3.716;2023-04-03T14:01:14;13.50;30.00
13960;DHT22;7052;51.050;3.716;2023-04-03T14:03:44;13.40;30.10
13960;DHT22;7052;51.050;3.716;2023-04-03T14:06:14;13.50;30.70
13960;DHT22;7052;51.050;3.716;2023-04-03T14:08:45;13.60;30.00
13960;DHT22;7052;51.050;3.716;2023-04-03T14:11:15;13.60;29.70
13960;DHT22;7052;51.050;3.716;2023-04-03T14:13:42;13.60;29.90
13960;DHT22;7052;51.050;3.716;2023-04-03T14:16:18;13.60;30.00
13960;DHT22;7052;51.050;3.716;2023-04-03T14:18:48;13.60;30.40
13960;DHT22;7052;51.050;3.716;2023-04-03T14:21:17;13.60;30.00
13960;DHT22;7052;51.050;3.716;2023-04-03T14:23:48;13.50;30.20
13960;DHT22;7052;51.050;3.716;2023-04-03T14:26:19;13.50;30.60
13960;DHT22;7052;51.050;3.716;2023-04-03T14:28:48;13.50;31.00
13960;DHT22;7052;51.050;3.716;2023-04-03T14:31:17;13.50;31.00
13960;DHT22;7052;51.050;3.716;2023-04-03T14:33:53;13.50;31.20
13960;DHT22;7052;51.050;3.716;2023-04-03T14:36:22;13.50;30.70
13960;DHT22;7052;51.050;3.716;2023-04-03T14:38:52;13.60;30.40
13960;DHT22;7052;51.050;3.716;2023-04-03T14:41:22;13.60;29.80
13960;DHT22;7052;51.050;3.716;2023-04-03T14:43:50;13.60;29.90
13960;DHT22;7052;51.050;3.716;2023-04-03T14:46:19;13.60;29.00
13960;DHT22;7052;51.050;3.716;2023-04-03T14:48:48;13.40;29.40
13960;DHT22;7052;51.050;3.716;2023-04-03T14:51:16;13.40;29.90
13960;DHT22;7052;51.050;3.716;2023-04-03T14:53:44;13.50;29.90
13960;DHT22;7052;51.050;3.716;2023-04-03T14:56:17;13.40;29.50
13960;DHT22;7052;51.050;3.716;2023-04-03T14:58:44;13.50;29.60
13960;DHT22;7052;51.050;3.716;2023-04-03T15:01:17;13.50;29.90
13960;DHT22;7052;51.050;3.716;2023-04-03T15:03:45;13.50;29.70
13960;DHT22;7052;51.050;3.716;2023-04-03T15:06:20;13.50;29.80
13960;DHT22;7052;51.050;3.716;2023-04-03T15:08:48;13.40;29.70
13960;DHT22;7052;51.050;3.716;2023-04-03T15:11:18;13.40;30.10
13960;DHT22;7052;51.050;3.716;2023-04-03T15:13:48;13.40;30.20
13960;DHT22;7052;51.050;3.716;2023-04-03T15:16:17;13.30;30.80
13960;DHT22;7052;51.050;3.716;2023-04-03T15:18:47;13.40;31.00
13960;DHT22;7052;51.050;3.716;2023-04-03T15:21:15;13.40;30.60
13960;DHT22;7052;51.050;3.716;2023-04-03T15:23:42;13.40;30.20
13960;DHT22;7052;51.050;3.716;2023-04-03T15:26:09;13.40;30.20
13960;DHT22;7052;51.050;3.716;2023-04-03T15:28:41;13.40;30.30
13960;DHT22;7052;51.050;3.716;2023-04-03T15:31:10;13.40;30.00
13960;DHT22;7052;51.050;3.716;2023-04-03T15:33:37;13.30;30.20
13960;DHT22;7052;51.050;3.716;2023-04-03T15:36:05;13.30;30.70
13960;DHT22;7052;51.050;3.716;2023-04-03T15:38:32;13.30;30.80
13960;DHT22;7052;51.050;3.716;2023-04-03T15:40:59;13.30;30.40
13960;DHT22;7052;51.050;3.716;2023-04-03T15:43:27;13.30;30.30
13960;DHT22;7052;51.050;3.716;2023-04-03T15:45:58;13.20;30.20
13960;DHT22;7052;51.050;3.716;2023-04-03T15:48:25;13.00;30.70
13960;DHT22;7052;51.050;3.716;2023-04-03T15:50:59;13.00;30.00
13960;DHT22;7052;51.050;3.716;2023-04-03T15:53:29;13.00;30.20
13960;DHT22;7052;51.050;3.716;2023-04-03T15:55:56;13.10;30.30
13960;DHT22;7052;51.050;3.716;2023-04-03T15:58:25;13.10;30.20
13960;DHT22;7052;51.050;3.716;2023-04-03T16:00:53;13.10;30.20
13960;DHT22;7052;51.050;3.716;2023-04-03T16:03:26;13.20;30.00
13960;DHT22;7052;51.050;3.716;2023-04-03T16:05:53;13.10;30.60
13960;DHT22;7052;51.050;3.716;2023-04-03T16:08:21;13.10;30.10
13960;DHT22;7052;51.050;3.716;2023-04-03T16:10:54;13.10;30.10
13960;DHT22;7052;51.050;3.716;2023-04-03T16:13:21;13.00;30.40
13960;DHT22;7052;51.050;3.716;2023-04-03T16:15:51;13.00;29.80
13960;DHT22;7052;51.050;3.716;2023-04-03T16:18:19;12.90;29.80
13960;DHT22;7052;51.050;3.716;2023-04-03T16:20:48;12.90;29.80
13960;DHT22;7052;51.050;3.716;2023-04-03T16:23:18;12.80;29.70
13960;DHT22;7052;51.050;3.716;2023-04-03T16:26:14;12.80;29.80
13960;DHT22;7052;51.050;3.716;2023-04-03T16:28:46;12.70;29.30
13960;DHT22;7052;51.050;3.716;2023-04-03T16:31:13;12.60;29.30